Wales, AK

12:17 PM AKST on February 11, 2016 (GMT -0900)
Tin City LRRS | | Change Station
CLOSE
Current Station
Airport
Location: Tin City,
Elevation: 272 ft
Nearby Weather Stations

Elev 272 ft 65.56 °N, 167.92 °W | Updated 22 minutes ago

Light Snow
Light Snow Freezing Fog
-1 °F
Feels Like -31 °F
N
41
Wind Variable Wind from NNE

Today
High -- | Low -- °F
--% Chance of Precip.
Yesterday
High -- | Low -- °F
Precip. -- in
Pressure 29.80 in
Visibility 0.2 miles
Clouds Mostly Cloudy 200 ft
Windchill -31 °F
Dew Point -4 °F
Humidity 88%
Rainfall 0.00 in
Snow Depth Not available.
10:29 AM 6:23 PM
Waxing Crescent, 14% visible
METAR PATC 112055Z AUTO 02036KT 1/4SM -SN FZFG BKN002 M18/M20 A2977 RMK AO2 PK WND 02039/2052 SNB1955 SLP091 P0000 60000 T11851200 54000
Pressure 29.80 in
Visibility 0.2 miles
Clouds Mostly Cloudy 200 ft
Windchill -31 °F
Dew Point -4 °F
Humidity 88%
Rainfall 0.00 in
Snow Depth Not available.
10:29 AM 6:23 PM
Waxing Crescent, 14% visible
METAR PATC 112055Z AUTO 02036KT 1/4SM -SN FZFG BKN002 M18/M20 A2977 RMK AO2 PK WND 02039/2052 SNB1955 SLP091 P0000 60000 T11851200 54000

10-Day Weather Forecast

Almanac

Astronomy

Feb. 11, 2016 Rise Set
Actual Time
Civil Twilight
Nautical Twilight
Astronomical Twilight
Moon
Length of Visible Light
Length of Day
Tomorrow will be .
, % of the Moon is Illuminated

Today's Extremes

State Highs State Lows

Community

WunderPhotos

Upload Photos

1,892,159 photos uploaded!

WunderBlog® & News

Nearby

Air Quality

  Air Quality AQ Index Pollutant
Not available.

Snow Depth

Station Depth Elevation

Earthquake Activity

City Distance Mag. Time & Date
Minimum magnitude displayed is 2.5.

Coastal Water Temperatures

Place Temperature

Stations

Nearby Weather Stations

Station Location Temp. Windchill Dew Point Humidity Wind Precip. Elev Updated Type
                   

Watches & Warnings

There are currently no watches in effect.